sensor_id;sensor_type;location;lat;lon;timestamp;P1;durP1;ratioP1;P2;durP2;ratioP2
12721;SDS011;6425;50.316;8.114;2022-07-23T00:00:19;12.13;;;10.47;;
12721;SDS011;6425;50.316;8.114;2022-07-23T00:05:21;13.43;;;10.17;;
12721;SDS011;6425;50.316;8.114;2022-07-23T00:10:22;13.00;;;10.90;;
12721;SDS011;6425;50.316;8.114;2022-07-23T00:15:22;14.80;;;12.07;;
12721;SDS011;6425;50.316;8.114;2022-07-23T00:20:24;15.70;;;11.57;;
12721;SDS011;6425;50.316;8.114;2022-07-23T00:25:26;13.17;;;11.70;;
12721;SDS011;6425;50.316;8.114;2022-07-23T00:30:27;13.87;;;11.70;;
12721;SDS011;6425;50.316;8.114;2022-07-23T00:35:30;14.23;;;11.43;;
12721;SDS011;6425;50.316;8.114;2022-07-23T00:40:33;12.53;;;10.13;;
12721;SDS011;6425;50.316;8.114;2022-07-23T00:45:34;13.23;;;11.83;;
12721;SDS011;6425;50.316;8.114;2022-07-23T00:50:36;15.60;;;11.90;;
12721;SDS011;6425;50.316;8.114;2022-07-23T00:55:37;15.63;;;12.33;;
12721;SDS011;6425;50.316;8.114;2022-07-23T01:00:39;16.40;;;12.33;;
12721;SDS011;6425;50.316;8.114;2022-07-23T01:05:41;15.73;;;11.97;;
12721;SDS011;6425;50.316;8.114;2022-07-23T01:10:41;13.80;;;11.43;;
12721;SDS011;6425;50.316;8.114;2022-07-23T01:15:42;14.53;;;11.97;;
12721;SDS011;6425;50.316;8.114;2022-07-23T01:20:44;14.90;;;12.33;;
12721;SDS011;6425;50.316;8.114;2022-07-23T01:25:49;18.07;;;14.40;;
12721;SDS011;6425;50.316;8.114;2022-07-23T01:30:52;17.97;;;12.67;;
12721;SDS011;6425;50.316;8.114;2022-07-23T01:35:53;19.23;;;14.13;;
12721;SDS011;6425;50.316;8.114;2022-07-23T01:40:59;19.27;;;14.57;;
12721;SDS011;6425;50.316;8.114;2022-07-23T01:46:04;18.80;;;14.37;;
12721;SDS011;6425;50.316;8.114;2022-07-23T01:51:12;25.93;;;16.23;;
12721;SDS011;6425;50.316;8.114;2022-07-23T01:56:18;17.60;;;14.77;;
12721;SDS011;6425;50.316;8.114;2022-07-23T02:01:18;17.90;;;14.17;;
12721;SDS011;6425;50.316;8.114;2022-07-23T02:06:19;17.80;;;14.07;;
12721;SDS011;6425;50.316;8.114;2022-07-23T02:11:20;17.50;;;13.80;;
12721;SDS011;6425;50.316;8.114;2022-07-23T02:16:21;19.73;;;15.67;;
12721;SDS011;6425;50.316;8.114;2022-07-23T02:21:21;18.80;;;15.43;;
12721;SDS011;6425;50.316;8.114;2022-07-23T02:26:23;20.40;;;14.97;;
12721;SDS011;6425;50.316;8.114;2022-07-23T02:31:26;20.10;;;14.97;;
12721;SDS011;6425;50.316;8.114;2022-07-23T02:36:30;20.47;;;15.63;;
12721;SDS011;6425;50.316;8.114;2022-07-23T02:41:33;19.83;;;14.70;;
12721;SDS011;6425;50.316;8.114;2022-07-23T02:46:33;17.87;;;14.63;;
12721;SDS011;6425;50.316;8.114;2022-07-23T02:51:35;19.13;;;15.23;;
12721;SDS011;6425;50.316;8.114;2022-07-23T02:56:40;18.87;;;14.10;;
12721;SDS011;6425;50.316;8.114;2022-07-23T03:01:41;18.90;;;14.73;;
12721;SDS011;6425;50.316;8.114;2022-07-23T03:06:42;19.07;;;14.77;;
12721;SDS011;6425;50.316;8.114;2022-07-23T03:11:44;21.47;;;15.50;;
12721;SDS011;6425;50.316;8.114;2022-07-23T03:16:44;20.97;;;15.73;;
12721;SDS011;6425;50.316;8.114;2022-07-23T03:21:45;19.63;;;15.83;;
12721;SDS011;6425;50.316;8.114;2022-07-23T03:26:47;21.87;;;14.23;;
12721;SDS011;6425;50.316;8.114;2022-07-23T03:31:48;22.60;;;15.97;;
12721;SDS011;6425;50.316;8.114;2022-07-23T03:36:49;18.90;;;15.80;;
12721;SDS011;6425;50.316;8.114;2022-07-23T03:41:51;29.43;;;17.13;;
12721;SDS011;6425;50.316;8.114;2022-07-23T03:46:51;22.40;;;16.20;;
12721;SDS011;6425;50.316;8.114;2022-07-23T03:51:52;21.17;;;15.87;;
12721;SDS011;6425;50.316;8.114;2022-07-23T03:56:54;23.33;;;17.20;;
12721;SDS011;6425;50.316;8.114;2022-07-23T04:01:55;22.70;;;17.40;;
12721;SDS011;6425;50.316;8.114;2022-07-23T04:06:55;22.63;;;16.57;;
12721;SDS011;6425;50.316;8.114;2022-07-23T04:11:58;25.17;;;18.00;;
12721;SDS011;6425;50.316;8.114;2022-07-23T04:16:58;24.13;;;18.30;;
12721;SDS011;6425;50.316;8.114;2022-07-23T04:22:00;22.83;;;17.03;;
12721;SDS011;6425;50.316;8.114;2022-07-23T04:27:02;26.67;;;17.23;;
12721;SDS011;6425;50.316;8.114;2022-07-23T04:32:05;25.30;;;16.57;;
12721;SDS011;6425;50.316;8.114;2022-07-23T04:37:05;22.43;;;15.83;;
12721;SDS011;6425;50.316;8.114;2022-07-23T04:42:08;26.07;;;16.60;;
12721;SDS011;6425;50.316;8.114;2022-07-23T04:47:08;26.20;;;15.67;;
12721;SDS011;6425;50.316;8.114;2022-07-23T04:52:09;22.00;;;15.30;;
12721;SDS011;6425;50.316;8.114;2022-07-23T04:57:11;18.83;;;15.43;;
12721;SDS011;6425;50.316;8.114;2022-07-23T05:02:12;16.53;;;13.77;;
12721;SDS011;6425;50.316;8.114;2022-07-23T05:07:14;22.63;;;14.20;;
12721;SDS011;6425;50.316;8.114;2022-07-23T05:12:15;16.63;;;13.37;;
12721;SDS011;6425;50.316;8.114;2022-07-23T05:17:17;21.90;;;14.90;;
12721;SDS011;6425;50.316;8.114;2022-07-23T05:22:18;17.87;;;14.03;;
12721;SDS011;6425;50.316;8.114;2022-07-23T05:27:20;20.93;;;15.30;;
12721;SDS011;6425;50.316;8.114;2022-07-23T05:32:22;17.80;;;12.67;;
12721;SDS011;6425;50.316;8.114;2022-07-23T05:37:31;18.83;;;13.40;;
12721;SDS011;6425;50.316;8.114;2022-07-23T05:42:33;21.37;;;13.40;;
12721;SDS011;6425;50.316;8.114;2022-07-23T05:47:41;19.43;;;14.43;;
12721;SDS011;6425;50.316;8.114;2022-07-23T05:52:44;18.67;;;15.10;;
12721;SDS011;6425;50.316;8.114;2022-07-23T05:58:18;19.47;;;14.90;;
12721;SDS011;6425;50.316;8.114;2022-07-23T06:03:19;21.07;;;15.53;;
12721;SDS011;6425;50.316;8.114;2022-07-23T06:08:19;23.33;;;15.97;;
12721;SDS011;6425;50.316;8.114;2022-07-23T06:13:21;26.37;;;14.83;;
12721;SDS011;6425;50.316;8.114;2022-07-23T06:18:21;18.43;;;14.77;;
12721;SDS011;6425;50.316;8.114;2022-07-23T06:23:22;19.20;;;15.13;;
12721;SDS011;6425;50.316;8.114;2022-07-23T06:28:24;19.37;;;15.27;;
12721;SDS011;6425;50.316;8.114;2022-07-23T06:33:24;19.43;;;15.00;;
12721;SDS011;6425;50.316;8.114;2022-07-23T06:38:25;18.77;;;14.90;;
12721;SDS011;6425;50.316;8.114;2022-07-23T06:43:27;19.03;;;15.10;;
12721;SDS011;6425;50.316;8.114;2022-07-23T06:48:29;18.23;;;14.80;;
12721;SDS011;6425;50.316;8.114;2022-07-23T06:53:29;15.77;;;13.97;;
12721;SDS011;6425;50.316;8.114;2022-07-23T06:58:32;15.10;;;13.50;;
12721;SDS011;6425;50.316;8.114;2022-07-23T07:03:33;16.93;;;12.93;;
12721;SDS011;6425;50.316;8.114;2022-07-23T07:08:33;14.67;;;12.63;;
12721;SDS011;6425;50.316;8.114;2022-07-23T07:13:35;13.77;;;11.57;;
12721;SDS011;6425;50.316;8.114;2022-07-23T07:18:36;14.37;;;12.13;;
12721;SDS011;6425;50.316;8.114;2022-07-23T07:23:36;16.87;;;12.77;;
12721;SDS011;6425;50.316;8.114;2022-07-23T07:28:38;15.77;;;11.80;;
12721;SDS011;6425;50.316;8.114;2022-07-23T07:33:38;16.03;;;11.00;;
12721;SDS011;6425;50.316;8.114;2022-07-23T07:38:39;13.37;;;10.53;;
12721;SDS011;6425;50.316;8.114;2022-07-23T07:43:41;15.40;;;10.63;;
12721;SDS011;6425;50.316;8.114;2022-07-23T07:48:41;10.33;;;9.33;;
12721;SDS011;6425;50.316;8.114;2022-07-23T07:53:42;11.00;;;9.70;;
12721;SDS011;6425;50.316;8.114;2022-07-23T07:58:44;11.30;;;10.10;;
12721;SDS011;6425;50.316;8.114;2022-07-23T08:03:44;11.57;;;9.20;;
12721;SDS011;6425;50.316;8.114;2022-07-23T08:08:45;10.23;;;9.23;;
12721;SDS011;6425;50.316;8.114;2022-07-23T08:13:46;8.67;;;6.90;;
12721;SDS011;6425;50.316;8.114;2022-07-23T08:18:47;10.33;;;8.33;;
12721;SDS011;6425;50.316;8.114;2022-07-23T08:23:47;9.40;;;8.37;;
12721;SDS011;6425;50.316;8.114;2022-07-23T08:28:49;8.73;;;7.37;;
12721;SDS011;6425;50.316;8.114;2022-07-23T08:33:50;7.90;;;6.90;;
12721;SDS011;6425;50.316;8.114;2022-07-23T08:38:50;9.17;;;7.53;;
12721;SDS011;6425;50.316;8.114;2022-07-23T08:43:52;9.77;;;7.30;;
12721;SDS011;6425;50.316;8.114;2022-07-23T08:48:53;9.37;;;7.60;;
12721;SDS011;6425;50.316;8.114;2022-07-23T08:53:55;7.40;;;6.63;;
12721;SDS011;6425;50.316;8.114;2022-07-23T08:58:58;10.27;;;7.40;;
12721;SDS011;6425;50.316;8.114;2022-07-23T09:03:58;9.67;;;7.13;;
12721;SDS011;6425;50.316;8.114;2022-07-23T09:08:59;8.70;;;7.47;;
12721;SDS011;6425;50.316;8.114;2022-07-23T09:14:17;7.67;;;6.63;;
12721;SDS011;6425;50.316;8.114;2022-07-23T09:19:36;6.93;;;6.30;;
12721;SDS011;6425;50.316;8.114;2022-07-23T09:24:36;8.37;;;6.37;;
12721;SDS011;6425;50.316;8.114;2022-07-23T09:29:38;6.43;;;5.67;;
12721;SDS011;6425;50.316;8.114;2022-07-23T09:34:39;6.33;;;5.80;;
12721;SDS011;6425;50.316;8.114;2022-07-23T09:39:40;6.93;;;6.33;;
12721;SDS011;6425;50.316;8.114;2022-07-23T09:44:43;6.67;;;6.00;;
12721;SDS011;6425;50.316;8.114;2022-07-23T09:49:57;8.37;;;5.97;;
12721;SDS011;6425;50.316;8.114;2022-07-23T09:54:58;7.60;;;6.53;;
12721;SDS011;6425;50.316;8.114;2022-07-23T10:00:01;9.77;;;8.87;;
12721;SDS011;6425;50.316;8.114;2022-07-23T10:05:05;9.93;;;9.03;;
12721;SDS011;6425;50.316;8.114;2022-07-23T10:10:32;9.40;;;8.50;;
12721;SDS011;6425;50.316;8.114;2022-07-23T10:15:54;7.97;;;6.13;;
12721;SDS011;6425;50.316;8.114;2022-07-23T10:20:55;9.80;;;9.10;;
12721;SDS011;6425;50.316;8.114;2022-07-23T10:25:58;11.93;;;10.10;;
12721;SDS011;6425;50.316;8.114;2022-07-23T10:31:06;10.47;;;9.13;;
12721;SDS011;6425;50.316;8.114;2022-07-23T10:36:17;9.63;;;8.93;;
12721;SDS011;6425;50.316;8.114;2022-07-23T10:41:30;14.33;;;10.67;;
12721;SDS011;6425;50.316;8.114;2022-07-23T10:46:34;9.30;;;8.60;;
12721;SDS011;6425;50.316;8.114;2022-07-23T10:51:35;10.43;;;9.63;;
12721;SDS011;6425;50.316;8.114;2022-07-23T11:02:21;10.10;;;9.20;;
12721;SDS011;6425;50.316;8.114;2022-07-23T11:07:23;7.53;;;6.70;;
12721;SDS011;6425;50.316;8.114;2022-07-23T11:12:33;7.50;;;6.73;;
12721;SDS011;6425;50.316;8.114;2022-07-23T11:17:39;8.57;;;7.77;;
12721;SDS011;6425;50.316;8.114;2022-07-23T11:22:58;7.47;;;6.77;;
12721;SDS011;6425;50.316;8.114;2022-07-23T11:28:13;8.07;;;7.40;;
12721;SDS011;6425;50.316;8.114;2022-07-23T11:33:20;8.67;;;7.77;;
12721;SDS011;6425;50.316;8.114;2022-07-23T11:38:22;8.87;;;8.10;;
12721;SDS011;6425;50.316;8.114;2022-07-23T11:43:23;10.67;;;8.43;;
12721;SDS011;6425;50.316;8.114;2022-07-23T11:48:26;9.30;;;8.40;;
12721;SDS011;6425;50.316;8.114;2022-07-23T11:53:29;8.80;;;7.90;;
12721;SDS011;6425;50.316;8.114;2022-07-23T11:58:30;10.10;;;7.87;;
12721;SDS011;6425;50.316;8.114;2022-07-23T12:03:32;9.20;;;7.53;;
12721;SDS011;6425;50.316;8.114;2022-07-23T12:08:33;7.97;;;7.27;;
12721;SDS011;6425;50.316;8.114;2022-07-23T12:13:41;8.10;;;7.00;;
12721;SDS011;6425;50.316;8.114;2022-07-23T12:18:43;8.23;;;7.43;;
12721;SDS011;6425;50.316;8.114;2022-07-23T12:23:43;6.90;;;6.30;;
12721;SDS011;6425;50.316;8.114;2022-07-23T12:28:51;7.00;;;6.43;;
12721;SDS011;6425;50.316;8.114;2022-07-23T12:33:54;7.03;;;6.33;;
12721;SDS011;6425;50.316;8.114;2022-07-23T12:38:54;8.60;;;7.77;;
12721;SDS011;6425;50.316;8.114;2022-07-23T12:43:55;6.67;;;6.07;;
12721;SDS011;6425;50.316;8.114;2022-07-23T12:48:57;6.13;;;5.63;;
12721;SDS011;6425;50.316;8.114;2022-07-23T12:53:58;8.17;;;7.47;;
12721;SDS011;6425;50.316;8.114;2022-07-23T12:59:04;6.27;;;5.87;;
12721;SDS011;6425;50.316;8.114;2022-07-23T13:04:09;6.50;;;6.03;;
12721;SDS011;6425;50.316;8.114;2022-07-23T13:09:11;6.40;;;5.80;;
12721;SDS011;6425;50.316;8.114;2022-07-23T13:14:14;8.57;;;7.87;;
12721;SDS011;6425;50.316;8.114;2022-07-23T13:19:17;6.43;;;5.93;;
12721;SDS011;6425;50.316;8.114;2022-07-23T13:24:20;5.90;;;5.50;;
12721;SDS011;6425;50.316;8.114;2022-07-23T13:29:21;6.40;;;5.90;;
12721;SDS011;6425;50.316;8.114;2022-07-23T13:34:24;7.80;;;6.27;;
12721;SDS011;6425;50.316;8.114;2022-07-23T13:39:27;8.27;;;6.33;;
12721;SDS011;6425;50.316;8.114;2022-07-23T13:44:27;5.83;;;5.40;;
12721;SDS011;6425;50.316;8.114;2022-07-23T13:49:29;6.80;;;6.30;;
12721;SDS011;6425;50.316;8.114;2022-07-23T13:54:30;6.60;;;6.03;;
12721;SDS011;6425;50.316;8.114;2022-07-23T13:59:30;6.87;;;6.17;;
12721;SDS011;6425;50.316;8.114;2022-07-23T14:04:33;5.60;;;5.20;;
12721;SDS011;6425;50.316;8.114;2022-07-23T14:09:33;6.77;;;6.20;;
12721;SDS011;6425;50.316;8.114;2022-07-23T14:14:34;6.63;;;6.07;;
12721;SDS011;6425;50.316;8.114;2022-07-23T14:19:36;6.57;;;5.97;;
12721;SDS011;6425;50.316;8.114;2022-07-23T14:24:36;6.90;;;6.20;;
12721;SDS011;6425;50.316;8.114;2022-07-23T14:29:37;6.90;;;6.23;;
12721;SDS011;6425;50.316;8.114;2022-07-23T14:34:39;6.80;;;6.30;;
12721;SDS011;6425;50.316;8.114;2022-07-23T14:39:40;6.40;;;5.87;;
12721;SDS011;6425;50.316;8.114;2022-07-23T14:44:44;6.43;;;5.53;;
12721;SDS011;6425;50.316;8.114;2022-07-23T14:49:47;6.13;;;5.63;;
12721;SDS011;6425;50.316;8.114;2022-07-23T14:54:47;8.73;;;6.10;;
12721;SDS011;6425;50.316;8.114;2022-07-23T14:59:48;6.67;;;6.07;;
12721;SDS011;6425;50.316;8.114;2022-07-23T15:04:49;6.87;;;6.07;;
12721;SDS011;6425;50.316;8.114;2022-07-23T15:09:50;5.87;;;5.37;;
12721;SDS011;6425;50.316;8.114;2022-07-23T15:14:50;6.33;;;5.80;;
12721;SDS011;6425;50.316;8.114;2022-07-23T15:19:52;6.27;;;5.67;;
12721;SDS011;6425;50.316;8.114;2022-07-23T15:24:52;5.83;;;5.43;;
12721;SDS011;6425;50.316;8.114;2022-07-23T15:29:53;5.67;;;5.17;;
12721;SDS011;6425;50.316;8.114;2022-07-23T15:34:55;6.03;;;5.57;;
12721;SDS011;6425;50.316;8.114;2022-07-23T15:39:55;5.93;;;5.43;;
12721;SDS011;6425;50.316;8.114;2022-07-23T15:44:56;6.50;;;5.90;;
12721;SDS011;6425;50.316;8.114;2022-07-23T15:49:58;12.20;;;5.50;;
12721;SDS011;6425;50.316;8.114;2022-07-23T15:54:58;9.17;;;7.70;;
12721;SDS011;6425;50.316;8.114;2022-07-23T15:59:59;6.17;;;5.67;;
12721;SDS011;6425;50.316;8.114;2022-07-23T16:05:01;6.07;;;5.67;;
12721;SDS011;6425;50.316;8.114;2022-07-23T16:10:01;9.43;;;5.70;;
12721;SDS011;6425;50.316;8.114;2022-07-23T16:15:03;5.37;;;4.97;;
12721;SDS011;6425;50.316;8.114;2022-07-23T16:20:06;6.60;;;5.77;;
12721;SDS011;6425;50.316;8.114;2022-07-23T16:25:08;5.80;;;5.40;;
12721;SDS011;6425;50.316;8.114;2022-07-23T16:30:10;5.70;;;5.30;;
12721;SDS011;6425;50.316;8.114;2022-07-23T16:35:12;6.30;;;5.63;;
12721;SDS011;6425;50.316;8.114;2022-07-23T16:40:13;5.40;;;5.00;;
12721;SDS011;6425;50.316;8.114;2022-07-23T16:45:13;5.70;;;5.30;;
12721;SDS011;6425;50.316;8.114;2022-07-23T16:50:15;5.47;;;5.10;;
12721;SDS011;6425;50.316;8.114;2022-07-23T16:55:16;6.03;;;5.47;;
12721;SDS011;6425;50.316;8.114;2022-07-23T17:00:16;7.00;;;5.53;;
12721;SDS011;6425;50.316;8.114;2022-07-23T17:05:18;5.53;;;5.17;;
12721;SDS011;6425;50.316;8.114;2022-07-23T17:10:19;5.70;;;5.17;;
12721;SDS011;6425;50.316;8.114;2022-07-23T17:15:20;9.37;;;5.00;;
12721;SDS011;6425;50.316;8.114;2022-07-23T17:20:22;5.60;;;5.10;;
12721;SDS011;6425;50.316;8.114;2022-07-23T17:25:23;5.80;;;5.20;;
12721;SDS011;6425;50.316;8.114;2022-07-23T17:30:23;5.30;;;4.80;;
12721;SDS011;6425;50.316;8.114;2022-07-23T17:35:26;5.13;;;4.30;;
12721;SDS011;6425;50.316;8.114;2022-07-23T17:40:27;4.67;;;3.40;;
12721;SDS011;6425;50.316;8.114;2022-07-23T17:45:27;5.43;;;3.83;;
12721;SDS011;6425;50.316;8.114;2022-07-23T17:50:29;6.33;;;3.90;;
12721;SDS011;6425;50.316;8.114;2022-07-23T17:55:30;8.10;;;3.93;;
12721;SDS011;6425;50.316;8.114;2022-07-23T18:00:34;5.37;;;3.90;;
12721;SDS011;6425;50.316;8.114;2022-07-23T18:05:38;4.47;;;3.70;;
12721;SDS011;6425;50.316;8.114;2022-07-23T18:10:38;4.30;;;3.90;;
12721;SDS011;6425;50.316;8.114;2022-07-23T18:15:39;6.50;;;4.03;;
12721;SDS011;6425;50.316;8.114;2022-07-23T18:20:41;6.60;;;4.17;;
12721;SDS011;6425;50.316;8.114;2022-07-23T18:25:41;9.00;;;4.07;;
12721;SDS011;6425;50.316;8.114;2022-07-23T18:30:42;3.97;;;3.53;;
12721;SDS011;6425;50.316;8.114;2022-07-23T18:35:44;6.93;;;4.17;;
12721;SDS011;6425;50.316;8.114;2022-07-23T18:40:45;4.10;;;3.80;;
12721;SDS011;6425;50.316;8.114;2022-07-23T18:45:46;5.80;;;4.07;;
12721;SDS011;6425;50.316;8.114;2022-07-23T18:50:48;5.70;;;4.17;;
12721;SDS011;6425;50.316;8.114;2022-07-23T18:55:49;8.33;;;4.37;;
12721;SDS011;6425;50.316;8.114;2022-07-23T19:00:49;5.33;;;4.73;;
12721;SDS011;6425;50.316;8.114;2022-07-23T19:05:51;8.70;;;4.43;;
12721;SDS011;6425;50.316;8.114;2022-07-23T19:10:52;5.60;;;5.00;;
12721;SDS011;6425;50.316;8.114;2022-07-23T19:15:52;8.57;;;5.13;;
12721;SDS011;6425;50.316;8.114;2022-07-23T19:20:54;13.23;;;4.67;;
12721;SDS011;6425;50.316;8.114;2022-07-23T19:25:55;8.40;;;4.90;;
12721;SDS011;6425;50.316;8.114;2022-07-23T19:30:55;6.67;;;4.63;;
12721;SDS011;6425;50.316;8.114;2022-07-23T19:35:57;9.77;;;5.10;;
12721;SDS011;6425;50.316;8.114;2022-07-23T19:40:58;9.47;;;5.30;;
12721;SDS011;6425;50.316;8.114;2022-07-23T19:45:58;9.93;;;5.10;;
12721;SDS011;6425;50.316;8.114;2022-07-23T19:51:00;13.20;;;5.30;;
12721;SDS011;6425;50.316;8.114;2022-07-23T19:56:01;16.33;;;7.30;;
12721;SDS011;6425;50.316;8.114;2022-07-23T20:01:02;18.70;;;5.30;;
12721;SDS011;6425;50.316;8.114;2022-07-23T20:06:04;18.93;;;6.10;;
12721;SDS011;6425;50.316;8.114;2022-07-23T20:11:05;16.63;;;6.50;;
12721;SDS011;6425;50.316;8.114;2022-07-23T20:16:05;15.77;;;5.80;;
12721;SDS011;6425;50.316;8.114;2022-07-23T20:21:08;12.43;;;6.00;;
12721;SDS011;6425;50.316;8.114;2022-07-23T20:26:09;15.00;;;6.13;;
12721;SDS011;6425;50.316;8.114;2022-07-23T20:31:10;13.13;;;6.17;;
12721;SDS011;6425;50.316;8.114;2022-07-23T20:36:12;15.63;;;6.43;;
12721;SDS011;6425;50.316;8.114;2022-07-23T20:41:12;16.17;;;6.90;;
12721;SDS011;6425;50.316;8.114;2022-07-23T20:46:13;10.37;;;5.60;;
12721;SDS011;6425;50.316;8.114;2022-07-23T20:51:15;14.43;;;6.40;;
12721;SDS011;6425;50.316;8.114;2022-07-23T20:56:16;7.80;;;5.67;;
12721;SDS011;6425;50.316;8.114;2022-07-23T21:01:17;10.87;;;5.63;;
12721;SDS011;6425;50.316;8.114;2022-07-23T21:06:18;12.33;;;6.60;;
12721;SDS011;6425;50.316;8.114;2022-07-23T21:11:19;12.60;;;7.03;;
12721;SDS011;6425;50.316;8.114;2022-07-23T21:16:20;11.13;;;7.60;;
12721;SDS011;6425;50.316;8.114;2022-07-23T21:21:22;8.60;;;7.10;;
12721;SDS011;6425;50.316;8.114;2022-07-23T21:26:22;9.07;;;6.97;;
12721;SDS011;6425;50.316;8.114;2022-07-23T21:31:23;9.63;;;6.67;;
12721;SDS011;6425;50.316;8.114;2022-07-23T21:36:25;11.60;;;6.67;;
12721;SDS011;6425;50.316;8.114;2022-07-23T21:41:25;15.27;;;6.93;;
12721;SDS011;6425;50.316;8.114;2022-07-23T21:46:26;11.60;;;7.37;;
12721;SDS011;6425;50.316;8.114;2022-07-23T21:51:28;7.03;;;6.33;;
12721;SDS011;6425;50.316;8.114;2022-07-23T21:56:29;8.73;;;7.27;;
12721;SDS011;6425;50.316;8.114;2022-07-23T22:01:29;10.27;;;7.83;;
12721;SDS011;6425;50.316;8.114;2022-07-23T22:06:31;9.67;;;7.90;;
12721;SDS011;6425;50.316;8.114;2022-07-23T22:11:32;9.73;;;7.20;;
12721;SDS011;6425;50.316;8.114;2022-07-23T22:16:33;12.73;;;7.93;;
12721;SDS011;6425;50.316;8.114;2022-07-23T22:21:34;10.60;;;8.07;;
12721;SDS011;6425;50.316;8.114;2022-07-23T22:26:35;10.07;;;7.40;;
12721;SDS011;6425;50.316;8.114;2022-07-23T22:31:36;9.03;;;7.20;;
12721;SDS011;6425;50.316;8.114;2022-07-23T22:36:38;9.83;;;8.40;;
12721;SDS011;6425;50.316;8.114;2022-07-23T22:41:38;8.63;;;7.83;;
12721;SDS011;6425;50.316;8.114;2022-07-23T22:46:39;10.30;;;7.80;;
12721;SDS011;6425;50.316;8.114;2022-07-23T22:51:40;8.60;;;7.70;;
12721;SDS011;6425;50.316;8.114;2022-07-23T22:56:41;9.47;;;8.43;;
12721;SDS011;6425;50.316;8.114;2022-07-23T23:01:41;8.63;;;7.77;;
12721;SDS011;6425;50.316;8.114;2022-07-23T23:06:43;11.73;;;8.33;;
12721;SDS011;6425;50.316;8.114;2022-07-23T23:11:44;9.20;;;8.00;;
12721;SDS011;6425;50.316;8.114;2022-07-23T23:16:44;8.50;;;7.60;;
12721;SDS011;6425;50.316;8.114;2022-07-23T23:21:46;9.53;;;8.63;;
12721;SDS011;6425;50.316;8.114;2022-07-23T23:26:47;12.27;;;7.93;;
12721;SDS011;6425;50.316;8.114;2022-07-23T23:31:47;11.60;;;8.63;;
12721;SDS011;6425;50.316;8.114;2022-07-23T23:36:49;11.23;;;8.00;;
12721;SDS011;6425;50.316;8.114;2022-07-23T23:41:50;11.37;;;8.73;;
12721;SDS011;6425;50.316;8.114;2022-07-23T23:46:51;10.63;;;9.23;;
12721;SDS011;6425;50.316;8.114;2022-07-23T23:51:53;9.90;;;8.07;;
12721;SDS011;6425;50.316;8.114;2022-07-23T23:56:53;10.00;;;8.83;;
